createdAt,value
2023-05-09T00:00:14.881Z,97.50
2023-05-09T00:02:42.182Z,97.60
2023-05-09T00:05:09.980Z,97.50
2023-05-09T00:07:36.786Z,97.60
2023-05-09T00:10:05.035Z,97.60
2023-05-09T00:12:31.843Z,97.60
2023-05-09T00:15:00.711Z,97.60
2023-05-09T00:17:28.633Z,97.50
2023-05-09T00:19:55.504Z,97.60
2023-05-09T00:22:22.396Z,97.90
2023-05-09T00:24:50.543Z,97.80
2023-05-09T00:27:17.361Z,97.90
2023-05-09T00:29:44.233Z,98.00
2023-05-09T00:32:11.643Z,97.90
2023-05-09T00:34:38.769Z,97.80
2023-05-09T00:37:06.337Z,97.90
2023-05-09T00:39:33.135Z,98.00
2023-05-09T00:41:59.900Z,98.00
2023-05-09T00:44:26.653Z,98.00
2023-05-09T00:46:53.484Z,98.10
2023-05-09T00:49:20.706Z,98.00
2023-05-09T00:51:48.287Z,98.10
2023-05-09T00:54:15.380Z,98.20
2023-05-09T00:56:42.273Z,98.20
2023-05-09T00:59:11.994Z,98.30
2023-05-09T01:01:38.857Z,98.30
2023-05-09T01:04:05.809Z,98.30
2023-05-09T01:07:00.047Z,98.30
2023-05-09T01:09:58.936Z,98.50
2023-05-09T01:12:44.015Z,98.50
2023-05-09T01:15:49.796Z,98.40
2023-05-09T01:18:30.121Z,98.20
2023-05-09T01:20:56.847Z,98.30
2023-05-09T01:23:44.116Z,98.30
2023-05-09T01:26:41.682Z,98.20
2023-05-09T01:29:47.670Z,98.30
2023-05-09T01:32:19.135Z,98.40
2023-05-09T01:34:49.173Z,98.30
2023-05-09T01:37:18.657Z,98.30
2023-05-09T01:39:51.416Z,98.40
2023-05-09T01:42:21.265Z,98.50
2023-05-09T01:44:49.697Z,98.50
2023-05-09T01:47:18.233Z,98.30
2023-05-09T01:49:46.302Z,98.50
2023-05-09T01:52:16.803Z,98.50
2023-05-09T01:54:45.403Z,98.50
2023-05-09T01:57:12.902Z,98.60
2023-05-09T01:59:42.871Z,98.60
2023-05-09T02:02:15.626Z,98.60
2023-05-09T02:04:44.163Z,98.60
2023-05-09T02:07:11.671Z,98.60
2023-05-09T02:09:38.717Z,98.80
2023-05-09T02:12:05.716Z,98.80
2023-05-09T02:14:32.638Z,98.90
2023-05-09T02:17:06.436Z,98.90
2023-05-09T02:19:34.240Z,99.10
2023-05-09T02:22:01.989Z,99.20
2023-05-09T02:24:29.131Z,99.20
2023-05-09T02:26:56.472Z,99.30
2023-05-09T02:29:32.018Z,99.30
2023-05-09T02:32:00.727Z,99.80
2023-05-09T02:34:27.885Z,99.40
2023-05-09T02:36:54.866Z,99.40
2023-05-09T02:39:21.705Z,99.60
2023-05-09T02:41:49.731Z,99.60
2023-05-09T02:44:16.644Z,99.50
2023-05-09T02:46:43.576Z,99.60
2023-05-09T02:49:16.764Z,99.70
2023-05-09T02:51:49.831Z,99.70
2023-05-09T02:54:19.048Z,99.80
2023-05-09T02:56:45.920Z,99.70
2023-05-09T02:59:12.903Z,99.70
2023-05-09T03:01:39.778Z,99.70
2023-05-09T03:04:06.919Z,99.70
2023-05-09T03:06:33.908Z,99.50
2023-05-09T03:09:00.900Z,99.70
2023-05-09T03:11:30.883Z,99.70
2023-05-09T03:14:00.487Z,99.70
2023-05-09T03:16:30.266Z,99.70
2023-05-09T03:19:00.045Z,99.70
2023-05-09T03:21:29.469Z,99.70
2023-05-09T03:23:56.483Z,99.70
2023-05-09T03:26:23.237Z,99.90
2023-05-09T03:28:55.865Z,99.80
2023-05-09T03:31:22.765Z,99.80
2023-05-09T03:33:49.585Z,99.90
2023-05-09T03:36:19.524Z,99.90
2023-05-09T03:38:49.448Z,99.90
2023-05-09T03:41:17.832Z,99.90
2023-05-09T03:43:45.048Z,99.90
2023-05-09T03:46:11.949Z,99.90
2023-05-09T03:48:38.844Z,99.90
2023-05-09T03:51:06.085Z,99.90
2023-05-09T03:53:33.043Z,99.90
2023-05-09T03:55:59.885Z,99.90
2023-05-09T03:58:29.082Z,99.90
2023-05-09T04:00:56.623Z,99.90
2023-05-09T04:03:23.705Z,99.90
2023-05-09T04:05:52.570Z,99.90
2023-05-09T04:08:21.949Z,99.90
2023-05-09T04:10:52.140Z,99.90
2023-05-09T04:13:19.036Z,99.90
2023-05-09T04:15:46.518Z,99.90
2023-05-09T04:18:14.904Z,99.90
2023-05-09T04:20:41.665Z,99.90
2023-05-09T04:23:17.376Z,99.90
2023-05-09T04:25:49.071Z,99.90
2023-05-09T04:28:18.487Z,99.90
2023-05-09T04:30:48.625Z,99.90
2023-05-09T04:33:15.753Z,99.90
2023-05-09T04:35:42.648Z,99.90
2023-05-09T04:38:12.099Z,99.90
2023-05-09T04:40:38.868Z,99.90
2023-05-09T04:43:11.574Z,99.90
2023-05-09T04:45:40.328Z,99.90
2023-05-09T04:48:07.243Z,99.90
2023-05-09T04:50:35.622Z,99.90
2023-05-09T04:53:02.464Z,99.90
2023-05-09T04:55:32.069Z,99.90
2023-05-09T04:58:00.968Z,99.90
2023-05-09T05:00:27.969Z,99.90
2023-05-09T05:02:54.861Z,99.90
2023-05-09T05:05:33.584Z,99.90
2023-05-09T05:08:04.354Z,99.90
2023-05-09T05:10:48.193Z,99.90
2023-05-09T05:13:15.957Z,99.90
2023-05-09T05:15:50.532Z,99.90
2023-05-09T05:18:20.826Z,99.90
2023-05-09T05:20:47.636Z,99.90
2023-05-09T05:23:14.516Z,99.90
2023-05-09T05:25:41.441Z,99.90
2023-05-09T05:28:08.234Z,99.90
2023-05-09T05:30:35.067Z,99.90
2023-05-09T05:33:02.360Z,99.90
2023-05-09T05:35:29.503Z,99.90
2023-05-09T05:37:58.421Z,99.90
2023-05-09T05:40:25.502Z,99.90
2023-05-09T05:42:52.706Z,99.90
2023-05-09T05:45:24.471Z,99.90
2023-05-09T05:47:51.496Z,99.90
2023-05-09T05:50:18.892Z,99.90
2023-05-09T05:52:48.097Z,99.90
2023-05-09T05:55:15.221Z,99.90
2023-05-09T05:57:42.366Z,99.90
2023-05-09T06:00:11.483Z,99.90
2023-05-09T06:02:38.956Z,99.90
2023-05-09T06:05:07.292Z,99.90
2023-05-09T06:07:34.291Z,99.90
2023-05-09T06:10:04.845Z,99.90
2023-05-09T06:12:38.307Z,99.90
2023-05-09T06:15:05.952Z,99.90
2023-05-09T06:17:36.170Z,99.90
2023-05-09T06:20:06.768Z,99.90
2023-05-09T06:22:33.650Z,99.90
2023-05-09T06:25:01.542Z,99.90
2023-05-09T06:27:31.107Z,99.90
2023-05-09T06:29:58.014Z,99.90
2023-05-09T06:32:25.706Z,99.90
2023-05-09T06:34:52.857Z,99.60
2023-05-09T06:37:19.743Z,99.80
2023-05-09T06:39:46.616Z,99.70
2023-05-09T06:42:13.524Z,99.90
2023-05-09T06:44:40.398Z,99.80
2023-05-09T06:47:07.227Z,99.90
2023-05-09T06:49:34.187Z,99.90
2023-05-09T06:52:01.132Z,99.20
2023-05-09T06:54:28.093Z,99.40
2023-05-09T06:56:55.090Z,99.40
2023-05-09T06:59:21.946Z,99.70
2023-05-09T07:01:48.913Z,99.10
2023-05-09T07:04:15.975Z,98.40
2023-05-09T07:06:42.952Z,98.80
2023-05-09T07:09:10.048Z,98.80
2023-05-09T07:11:37.408Z,98.20
2023-05-09T07:14:04.613Z,98.70
2023-05-09T07:16:31.604Z,98.60
2023-05-09T07:18:58.542Z,98.70
2023-05-09T07:21:25.338Z,97.80
2023-05-09T07:23:52.244Z,98.20
2023-05-09T07:26:19.136Z,98.10
2023-05-09T07:28:46.099Z,97.90
2023-05-09T07:31:12.993Z,98.30
2023-05-09T07:33:39.864Z,98.50
2023-05-09T07:36:06.788Z,97.40
2023-05-09T07:38:33.605Z,97.80
2023-05-09T07:41:00.514Z,98.00
2023-05-09T07:43:27.366Z,97.40
2023-05-09T07:45:54.272Z,96.50
2023-05-09T07:48:21.176Z,96.80
2023-05-09T07:50:47.981Z,96.70
2023-05-09T07:53:15.096Z,96.10
2023-05-09T07:55:41.985Z,96.30
2023-05-09T07:58:08.853Z,96.30
2023-05-09T08:00:36.039Z,96.40
2023-05-09T08:03:03.056Z,95.10
2023-05-09T08:05:30.031Z,95.10
2023-05-09T08:07:56.860Z,94.70
2023-05-09T08:10:23.904Z,94.60
2023-05-09T08:12:51.313Z,94.80
2023-05-09T08:15:18.515Z,95.70
2023-05-09T08:17:45.578Z,95.70
2023-05-09T08:20:13.282Z,95.50
2023-05-09T08:22:40.959Z,95.80
2023-05-09T08:25:08.855Z,95.90
2023-05-09T08:27:35.741Z,95.90
2023-05-09T08:30:02.923Z,95.80
2023-05-09T08:32:29.759Z,95.60
2023-05-09T08:34:56.535Z,95.30
2023-05-09T08:37:23.366Z,95.30
2023-05-09T08:39:50.200Z,96.40
2023-05-09T08:42:20.536Z,96.50
2023-05-09T08:44:47.401Z,96.70
2023-05-09T08:47:14.916Z,95.40
2023-05-09T08:49:42.832Z,94.10
2023-05-09T08:52:11.421Z,95.00
2023-05-09T08:54:38.791Z,94.80
2023-05-09T08:57:06.059Z,94.10
2023-05-09T08:59:36.827Z,93.40
2023-05-09T09:02:07.463Z,93.70
2023-05-09T09:04:34.741Z,94.50
2023-05-09T09:07:05.798Z,94.10
2023-05-09T09:09:35.770Z,94.20
2023-05-09T09:12:17.386Z,93.40
2023-05-09T09:14:49.792Z,93.40
2023-05-09T09:17:25.118Z,93.20
2023-05-09T09:20:02.939Z,92.80
2023-05-09T09:22:33.918Z,93.20
2023-05-09T09:25:04.661Z,93.50
2023-05-09T09:27:32.386Z,94.00
2023-05-09T09:30:12.337Z,94.90
2023-05-09T09:32:40.309Z,91.60
2023-05-09T09:35:08.931Z,91.40
2023-05-09T09:37:37.035Z,87.30
2023-05-09T09:40:07.662Z,83.30
2023-05-09T09:42:45.555Z,79.40
2023-05-09T09:45:16.963Z,73.20
2023-05-09T09:47:46.492Z,73.20
2023-05-09T09:50:16.325Z,73.90
2023-05-09T09:52:54.469Z,75.00
2023-05-09T09:55:22.515Z,74.10
2023-05-09T09:57:49.740Z,78.20
2023-05-09T10:00:21.306Z,76.00
2023-05-09T10:02:50.436Z,80.20
2023-05-09T10:05:31.454Z,81.70
2023-05-09T10:08:03.597Z,74.80
2023-05-09T10:10:36.101Z,76.10
2023-05-09T10:13:12.575Z,74.60
2023-05-09T10:15:52.317Z,74.70
2023-05-09T10:18:33.736Z,70.90
2023-05-09T10:21:03.335Z,74.20
2023-05-09T10:23:32.425Z,71.60
2023-05-09T10:26:05.577Z,67.80
2023-05-09T10:28:35.077Z,65.80
2023-05-09T10:31:12.677Z,61.90
2023-05-09T10:34:02.094Z,62.00
2023-05-09T10:36:29.107Z,61.90
2023-05-09T10:38:56.366Z,57.50
2023-05-09T10:41:24.032Z,58.30
2023-05-09T10:43:51.380Z,57.00
2023-05-09T10:46:18.457Z,57.70
2023-05-09T11:10:23.308Z,66.10
2023-05-09T11:19:03.610Z,70.50
2023-05-09T11:21:30.515Z,68.10
2023-05-09T11:23:57.393Z,68.20
2023-05-09T11:26:35.410Z,66.40
2023-05-09T11:29:06.756Z,68.40
2023-05-09T11:31:33.702Z,73.30
2023-05-09T11:34:04.803Z,75.70
2023-05-09T11:39:25.344Z,79.40
2023-05-09T11:41:52.928Z,81.10
2023-05-09T11:44:22.725Z,80.90
2023-05-09T11:46:49.904Z,83.80
2023-05-09T11:49:19.370Z,85.00
2023-05-09T11:51:46.344Z,86.70
2023-05-09T11:54:14.939Z,86.20
2023-05-09T11:56:45.056Z,87.70
2023-05-09T11:59:14.648Z,86.90
2023-05-09T12:01:41.628Z,86.40
2023-05-09T12:04:09.177Z,86.80
2023-05-09T12:06:37.807Z,86.70
2023-05-09T12:09:05.202Z,87.00
2023-05-09T12:11:32.542Z,88.10
2023-05-09T12:13:59.458Z,87.40
2023-05-09T12:16:26.337Z,87.60
2023-05-09T12:18:53.665Z,87.90
2023-05-09T12:21:21.627Z,88.30
2023-05-09T12:23:50.894Z,86.50
2023-05-09T12:26:18.415Z,86.20
2023-05-09T12:28:45.752Z,85.90
2023-05-09T12:31:13.102Z,85.30
2023-05-09T12:33:41.617Z,84.70
2023-05-09T12:36:11.421Z,84.40
2023-05-09T12:38:39.254Z,83.80
2023-05-09T12:41:22.342Z,82.60
2023-05-09T12:43:57.358Z,81.70
2023-05-09T12:46:24.407Z,83.00
2023-05-09T12:48:51.848Z,82.50
2023-05-09T12:51:22.304Z,83.10
2023-05-09T12:53:49.584Z,83.30
2023-05-09T12:56:21.544Z,83.50
2023-05-09T12:58:55.297Z,84.50
2023-05-09T13:01:29.018Z,86.50
2023-05-09T13:04:04.120Z,87.20
2023-05-09T13:06:31.231Z,89.10
2023-05-09T13:09:08.609Z,89.60
2023-05-09T13:11:37.675Z,89.80
2023-05-09T13:14:04.782Z,90.20
2023-05-09T13:16:31.742Z,89.40
2023-05-09T13:18:58.670Z,90.20
2023-05-09T13:21:25.642Z,90.50
2023-05-09T13:23:52.613Z,90.30
2023-05-09T13:26:19.550Z,90.50
2023-05-09T13:28:46.428Z,90.60
2023-05-09T13:31:13.283Z,91.10
2023-05-09T13:33:40.308Z,91.70
2023-05-09T13:36:07.509Z,91.60
2023-05-09T13:38:38.599Z,91.90
2023-05-09T13:41:06.008Z,91.10
2023-05-09T13:43:33.017Z,91.00
2023-05-09T13:45:59.920Z,90.70
2023-05-09T13:48:26.872Z,90.10
2023-05-09T13:50:54.035Z,89.40
2023-05-09T13:53:20.775Z,90.10
2023-05-09T13:55:47.547Z,89.70
2023-05-09T13:58:14.358Z,90.00
2023-05-09T14:00:41.903Z,90.10
2023-05-09T14:03:09.247Z,90.20
2023-05-09T14:05:36.039Z,90.40
2023-05-09T14:08:03.496Z,90.60
2023-05-09T14:10:30.245Z,90.90
2023-05-09T14:12:57.213Z,90.40
2023-05-09T14:15:24.080Z,88.80
2023-05-09T14:17:51.001Z,88.80
2023-05-09T14:20:19.920Z,88.60
2023-05-09T14:22:46.697Z,87.80
2023-05-09T14:25:13.462Z,88.50
2023-05-09T14:27:40.288Z,87.60
2023-05-09T14:30:08.601Z,86.00
2023-05-09T14:32:35.665Z,86.80
2023-05-09T14:35:02.818Z,86.30
2023-05-09T14:37:30.347Z,86.30
2023-05-09T14:39:57.129Z,86.60
2023-05-09T14:42:24.239Z,85.70
2023-05-09T14:44:50.993Z,84.50
2023-05-09T14:47:17.779Z,84.00
2023-05-09T14:49:44.615Z,84.30
2023-05-09T14:52:11.589Z,82.90
2023-05-09T14:54:38.381Z,84.40
2023-05-09T14:57:07.543Z,83.90
2023-05-09T14:59:36.804Z,83.50
2023-05-09T15:02:04.119Z,83.00
2023-05-09T15:04:33.254Z,84.80
2023-05-09T15:07:00.233Z,84.70
2023-05-09T15:09:27.329Z,83.50
2023-05-09T15:11:54.889Z,84.10
2023-05-09T15:14:22.017Z,82.20
2023-05-09T15:16:51.709Z,84.40
2023-05-09T15:19:18.860Z,82.70
2023-05-09T15:21:57.074Z,82.30
2023-05-09T15:24:46.817Z,83.50
2023-05-09T15:27:14.430Z,83.40
2023-05-09T15:29:42.009Z,83.10
2023-05-09T15:32:08.813Z,84.70
2023-05-09T15:34:35.932Z,83.10
2023-05-09T15:37:05.856Z,84.40
2023-05-09T15:39:36.263Z,84.10
2023-05-09T15:42:05.223Z,84.40
2023-05-09T15:44:32.134Z,86.00
2023-05-09T15:46:58.971Z,86.80
2023-05-09T15:49:25.941Z,87.40
2023-05-09T15:51:52.792Z,86.70
2023-05-09T15:54:20.353Z,85.40
2023-05-09T15:56:48.268Z,83.70
2023-05-09T15:59:15.090Z,82.80
2023-05-09T16:01:41.949Z,83.50
2023-05-09T16:04:09.254Z,82.40
2023-05-09T16:06:42.170Z,84.20
2023-05-09T16:09:12.101Z,84.00
2023-05-09T16:11:49.442Z,85.00
2023-05-09T16:14:16.389Z,85.40
2023-05-09T16:16:43.310Z,86.80
2023-05-09T16:19:10.066Z,88.20
2023-05-09T16:21:37.919Z,88.30
2023-05-09T16:24:05.447Z,88.00
2023-05-09T16:26:32.408Z,89.00
2023-05-09T16:28:59.370Z,88.70
2023-05-09T16:31:26.668Z,90.00
2023-05-09T16:33:54.222Z,89.90
2023-05-09T16:36:24.943Z,89.80
2023-05-09T16:38:51.842Z,90.70
2023-05-09T16:41:18.722Z,90.70
2023-05-09T16:43:45.942Z,90.60
2023-05-09T16:46:12.806Z,90.60
2023-05-09T16:48:57.438Z,91.00
2023-05-09T16:51:24.215Z,91.20
2023-05-09T16:53:51.212Z,91.90
2023-05-09T16:56:18.003Z,92.20
2023-05-09T16:58:44.984Z,92.40
2023-05-09T17:01:12.943Z,92.30
2023-05-09T17:03:42.793Z,92.40
2023-05-09T17:06:10.346Z,92.50
2023-05-09T17:08:37.366Z,92.80
2023-05-09T17:11:05.520Z,93.10
2023-05-09T17:13:32.467Z,93.40
2023-05-09T17:16:01.978Z,93.60
2023-05-09T17:18:37.766Z,93.70
2023-05-09T17:21:08.490Z,93.80
2023-05-09T17:23:35.365Z,93.40
2023-05-09T17:26:02.442Z,93.50
2023-05-09T17:28:36.698Z,93.40
2023-05-09T17:31:03.636Z,93.50
2023-05-09T17:33:30.655Z,93.30
2023-05-09T17:35:57.593Z,93.40
2023-05-09T17:38:24.576Z,93.20
2023-05-09T17:40:51.352Z,93.20
2023-05-09T17:43:18.179Z,93.60
2023-05-09T17:45:46.261Z,93.70
2023-05-09T17:48:13.627Z,93.70
2023-05-09T17:50:40.580Z,93.90
2023-05-09T17:53:14.498Z,94.40
2023-05-09T17:58:38.648Z,95.10
2023-05-09T18:01:05.778Z,95.10
2023-05-09T18:03:33.322Z,95.10
2023-05-09T18:06:11.486Z,95.10
2023-05-09T18:08:40.122Z,95.50
2023-05-09T18:11:07.134Z,95.70
2023-05-09T18:13:34.862Z,95.90
2023-05-09T18:16:02.685Z,96.10
2023-05-09T18:18:30.984Z,96.20
2023-05-09T18:20:58.615Z,96.10
2023-05-09T18:23:26.311Z,96.10
2023-05-09T18:25:54.481Z,95.90
2023-05-09T18:28:27.618Z,95.70
2023-05-09T18:30:56.574Z,95.60
2023-05-09T18:33:26.930Z,95.50
2023-05-09T18:35:54.642Z,95.30
2023-05-09T18:38:21.839Z,95.10
2023-05-09T18:40:49.616Z,95.00
2023-05-09T18:43:16.927Z,94.90
2023-05-09T18:45:45.046Z,95.20
2023-05-09T18:48:12.314Z,94.90
2023-05-09T18:50:39.429Z,95.00
2023-05-09T18:53:09.090Z,95.00
2023-05-09T18:55:36.032Z,94.90
2023-05-09T18:58:02.874Z,95.00
2023-05-09T19:00:29.719Z,94.90
2023-05-09T19:02:56.705Z,95.00
2023-05-09T19:05:23.658Z,95.20
2023-05-09T19:07:51.784Z,95.20
2023-05-09T19:10:21.971Z,95.20
2023-05-09T19:13:03.605Z,95.40
2023-05-09T19:15:36.196Z,95.50
2023-05-09T19:18:03.881Z,95.60
2023-05-09T19:20:46.184Z,95.60
2023-05-09T19:23:20.444Z,95.60
2023-05-09T19:25:53.364Z,95.70
2023-05-09T19:28:25.905Z,95.70
2023-05-09T19:31:00.786Z,95.70
2023-05-09T19:33:30.574Z,96.10
2023-05-09T19:36:03.106Z,95.70
2023-05-09T19:38:40.292Z,95.70
2023-05-09T19:41:13.527Z,96.10
2023-05-09T19:43:42.710Z,95.70
2023-05-09T19:46:18.940Z,95.90
2023-05-09T19:48:52.236Z,96.00
2023-05-09T19:51:20.211Z,96.20
2023-05-09T19:53:48.459Z,96.40
2023-05-09T19:56:18.170Z,96.70
2023-05-09T19:58:49.925Z,96.70
2023-05-09T20:01:20.356Z,96.80
2023-05-09T20:03:53.599Z,97.00
2023-05-09T20:06:22.768Z,97.50
2023-05-09T20:09:02.501Z,98.00
2023-05-09T20:11:32.661Z,97.80
2023-05-09T20:14:08.283Z,97.90
2023-05-09T20:16:42.738Z,97.90
2023-05-09T20:19:18.333Z,97.70
2023-05-09T20:21:46.627Z,97.70
2023-05-09T20:24:32.542Z,97.60
2023-05-09T20:27:09.789Z,97.90
2023-05-09T20:29:36.888Z,97.40
2023-05-09T20:32:22.238Z,97.50
2023-05-09T20:34:49.420Z,97.60
2023-05-09T20:37:19.735Z,97.50
2023-05-09T20:39:52.613Z,97.70
2023-05-09T20:42:37.096Z,97.70
2023-05-09T20:45:04.463Z,97.70
2023-05-09T20:47:50.580Z,97.80
2023-05-09T20:50:21.148Z,97.70
2023-05-09T20:53:04.013Z,97.80
2023-05-09T20:55:34.196Z,97.70
2023-05-09T20:58:09.731Z,97.80
2023-05-09T21:00:39.700Z,97.80
2023-05-09T21:03:49.665Z,97.80
2023-05-09T21:06:20.768Z,97.80
2023-05-09T21:08:50.135Z,97.90
2023-05-09T21:11:18.301Z,97.70
2023-05-09T21:13:47.923Z,97.70
2023-05-09T21:16:14.782Z,97.70
2023-05-09T21:18:41.593Z,97.80
2023-05-09T21:21:08.567Z,97.70
2023-05-09T21:23:42.317Z,97.60
2023-05-09T21:26:09.404Z,97.70
2023-05-09T21:28:36.263Z,97.70
2023-05-09T21:31:06.214Z,97.80
2023-05-09T21:33:36.041Z,97.90
2023-05-09T21:36:02.905Z,97.80
2023-05-09T21:38:29.826Z,97.80
2023-05-09T21:40:58.225Z,97.80
2023-05-09T21:43:25.116Z,97.70
2023-05-09T21:45:51.981Z,97.60
2023-05-09T21:48:18.741Z,97.70
2023-05-09T21:50:53.102Z,97.70
2023-05-09T21:53:20.190Z,97.60
2023-05-09T21:55:47.571Z,97.80
2023-05-09T21:58:14.392Z,97.80
2023-05-09T22:00:44.176Z,97.80
2023-05-09T22:03:13.993Z,97.80
2023-05-09T22:05:41.282Z,97.70
2023-05-09T22:08:09.644Z,97.70
2023-05-09T22:10:40.295Z,97.70
2023-05-09T22:13:09.585Z,97.80
2023-05-09T22:15:36.459Z,97.80
2023-05-09T22:18:03.467Z,97.80
2023-05-09T22:20:30.413Z,97.80
2023-05-09T22:22:57.434Z,97.90
2023-05-09T22:25:24.417Z,97.90
2023-05-09T22:27:51.300Z,97.90
2023-05-09T22:30:18.357Z,98.10
2023-05-09T22:32:45.964Z,98.00
2023-05-09T22:35:12.791Z,98.00
2023-05-09T22:37:43.026Z,98.00
2023-05-09T22:40:10.308Z,98.00
2023-05-09T22:42:39.976Z,98.00
2023-05-09T22:45:07.659Z,98.00
2023-05-09T22:47:39.570Z,98.00
2023-05-09T22:50:07.222Z,98.10
2023-05-09T22:52:38.243Z,98.10
2023-05-09T22:55:07.652Z,98.20
2023-05-09T22:57:34.559Z,98.20
2023-05-09T23:00:01.381Z,98.30
2023-05-09T23:02:30.355Z,98.30
2023-05-09T23:04:57.574Z,98.40
2023-05-09T23:07:26.294Z,98.20
2023-05-09T23:09:58.212Z,98.20
2023-05-09T23:12:29.307Z,98.20
2023-05-09T23:14:59.432Z,98.20
2023-05-09T23:17:26.448Z,98.60
2023-05-09T23:19:55.733Z,98.30
2023-05-09T23:22:22.782Z,98.30
2023-05-09T23:24:52.673Z,98.40
2023-05-09T23:27:22.670Z,98.40
2023-05-09T23:29:49.696Z,98.30
2023-05-09T23:32:20.145Z,98.40
2023-05-09T23:34:49.312Z,98.50
2023-05-09T23:37:16.248Z,98.50
2023-05-09T23:39:47.074Z,98.50
2023-05-09T23:42:13.904Z,98.60
2023-05-09T23:44:43.001Z,98.50
2023-05-09T23:47:10.006Z,98.50
2023-05-09T23:49:36.971Z,98.30
2023-05-09T23:52:03.774Z,98.40
2023-05-09T23:54:31.129Z,98.20
2023-05-09T23:56:58.152Z,98.10
2023-05-09T23:59:27.024Z,97.60
